Aérodrome :
LOGIN :

S'inscrire | Disclaimer

   EN    FR    IT 

 










Légende :    VFR   VFR Marginal   IFR   IFR Intensif   IFR Très Intensif
Visi : 
Plafond : 
>= 8 km
>= 3000ft
5 à 8 km
1000 à 3000 ft
1500m à 5 km
500 à 1000 ft
800 à 1500m
200 à 500 ft
< 800m
< 200 ft
Symboles :   Orages  Brouillard  Fortes neiges  Fortes précipitations  Vent > 20 kt
SIGMETs :   Divers  Orages  Givrage  Turbulence  Onde Orograph.  Cendres Volcan.







- Altitude de l'aérodrome : 197 ft
- Code IATA : XOG
- Voir les cartes d'approche


LFMO - Orange

DERNIER METAR :
  • 230800Z AUTO 00000KT 6000 SCT012 25/21 Q1019 NOSIG

METARs EXPIRÉS :
  • 230730Z AUTO VRB02KT 6000 OVC012 24/21 Q1019 BECMG NSC
  • 230700Z AUTO 00000KT 6000 OVC011 24/21 Q1019 BECMG NSC
  • 230630Z AUTO VRB02KT 8000 OVC011 24/21 Q1019 BECMG NSC
  • 230600Z AUTO VRB02KT 6000 OVC009 23/21 Q1019 TEMPO 4000 BR BECMG NSC
  • 230530Z AUTO 00000KT 6000 OVC009 23/21 Q1018 TEMPO 4000 BR BECMG NSC

TAF TAF LFMO
Valide du 23 à 09h jusqu'au 24 à 09h UTC


230800Z 2309/2409 30005KT 6000 BKN015
BECMG 2309/2311 CAVOK
PROB30
TEMPO 2317/2319 4000 SHRA BKN040TCU
BECMG 2406/2408 33015KT
Pas de NOTAMs connus pour ce terrain.



MET'MAP, la Météo Aéronautique d'un coup d'oeil ! - Copyright ORBIFLY Décembre 2007 - Disclaimer

ORBIFLY MET'MAP TEAM :

Programmation & Développement : Alexandra Zaïnal
Conception & Développement : Baudouin d'Aumeries
Co-Programmation & Développement : Marc-Olivier Méhu
Soutien technique & logistique : Manuel Goepfert

Contact : metmap@orbifly.com




SOURCES & CREDITS :

   NOAA